M I D A S
Marine Information and Data Acquisition System
Tripno 2175 of the Zeeleeuw from 2011-07-06 06:55:43 to 2011-07-06 15:21:16
Back to CruiseResearch ActivitiesStationsMapUnderway DataData graphs

EquipmentUnitsComment
TimeDGPSUTC
LatitudeDGPSDM.mWGS84
LongitudeDGPSDM.mWGS84
HeadingGyrodeg 
SOGDGPSknotsSpeed over ground
COGDGPSdegCourse over ground
DepthEcho soundermeters200 kHz
Missing or incorrect values are displayed as -999
Navigation data collected by the RV Zeeleeuw from 2011-07-06 06:51:35 to 2011-07-06 16:11:52
                                                                                    Next 1000 lines
Time Latitude Longitude Heading SOG COG Depth
2011-07-06 06:51:44 51°13.637 2°56.02 121.1 0.1 199 8.1
2011-07-06 06:51:49 51°13.636 2°56.02 119.5 0.2 192 8.1
2011-07-06 06:51:54 51°13.636 2°56.02 117.8 0.1 195 8
2011-07-06 06:51:59 51°13.636 2°56.02 116.2 0.2 197 8
2011-07-06 06:52:04 51°13.636 2°56.02 114.6 0.2 195 8
2011-07-06 06:52:09 51°13.635 2°56.019 112.7 0.1 238 8
2011-07-06 06:52:15 51°13.636 2°56.019 111.2 0.4 273 -999
2011-07-06 06:52:20 51°13.636 2°56.017 109.9 0.8 289 8.1
2011-07-06 06:52:25 51°13.637 2°56.014 109.4 1.2 283 8.1
2011-07-06 06:52:30 51°13.638 2°56.011 109.2 1.5 291 8.2
2011-07-06 06:52:35 51°13.639 2°56.007 109.2 1.8 287 8.4
2011-07-06 06:52:40 51°13.64 2°56.003 109.7 2 292 8.5
2011-07-06 06:52:45 51°13.641 2°55.998 110 2.2 291 -999
2011-07-06 06:52:50 51°13.642 2°55.993 110.4 2.4 292 -999
2011-07-06 06:52:56 51°13.644 2°55.987 110.5 2.6 291 -999
2011-07-06 06:53:01 51°13.645 2°55.982 110.4 2.8 293 -999
2011-07-06 06:53:06 51°13.647 2°55.975 110.4 3 292 -999
2011-07-06 06:53:11 51°13.648 2°55.969 110.4 3.2 293 -999
2011-07-06 06:53:16 51°13.65 2°55.962 110.4 3.3 292 -999
2011-07-06 06:53:21 51°13.652 2°55.955 110.4 3.5 294 -999
2011-07-06 06:53:26 51°13.654 2°55.947 110.4 3.6 292 -999
2011-07-06 06:53:31 51°13.656 2°55.94 110.5 3.7 294 -999
2011-07-06 06:53:36 51°13.658 2°55.932 110.5 3.8 293 -999
2011-07-06 06:53:41 51°13.66 2°55.924 110.4 3.9 294 -999
2011-07-06 06:53:46 51°13.662 2°55.916 110.2 3.9 292 -999
2011-07-06 06:53:51 51°13.664 2°55.908 109.8 3.9 292 -999
2011-07-06 06:53:56 51°13.666 2°55.901 109.2 3.9 292 -999
2011-07-06 06:54:01 51°13.668 2°55.893 108.5 3.9 291 -999
2011-07-06 06:54:06 51°13.67 2°55.885 107.7 3.9 290 -999
2011-07-06 06:54:11 51°13.672 2°55.877 106.7 3.8 290 -999
2011-07-06 06:54:16 51°13.674 2°55.869 105.9 3.9 291 -999
2011-07-06 06:54:21 51°13.675 2°55.86 105.2 3.9 291 -999
2011-07-06 06:54:26 51°13.677 2°55.853 104.3 3.7 289 -999
2011-07-06 06:54:31 51°13.678 2°55.845 103.5 3.6 287 -999
2011-07-06 06:54:36 51°13.68 2°55.838 102.3 3.5 286 -999
2011-07-06 06:54:41 51°13.681 2°55.831 101 3.4 287 -999
2011-07-06 06:54:46 51°13.683 2°55.824 99.7 3.2 286 -999
2011-07-06 06:54:51 51°13.684 2°55.817 98.3 3.1 286 11.7
2011-07-06 06:54:56 51°13.685 2°55.81 97.3 3 285 4.9
2011-07-06 06:55:00 51°13.685 2°55.805 96.1 2.9 285 12.5
2011-07-06 06:55:06 51°13.686 2°55.798 95.2 2.8 284 -999
2011-07-06 06:55:11 51°13.687 2°55.792 94.1 2.7 284 12.4
2011-07-06 06:55:16 51°13.688 2°55.787 93.1 2.3 286 12.6
2011-07-06 06:55:20 51°13.689 2°55.784 92.3 1.7 289 12.4
2011-07-06 06:55:25 51°13.689 2°55.782 90.3 1.1 297 12.4
2011-07-06 06:55:30 51°13.69 2°55.781 86.9 0.7 330 12.4
2011-07-06 06:55:35 51°13.691 2°55.781 81.9 0.8 16 12.3
2011-07-06 06:55:40 51°13.692 2°55.783 75.8 1.1 34 12.3
2011-07-06 06:55:44 51°13.694 2°55.784 68.9 1.5 40 12.4
2011-07-06 06:55:49 51°13.695 2°55.787 61.3 1.9 41 12.6
2011-07-06 06:55:54 51°13.697 2°55.79 53.7 1.9 37 12.6
2011-07-06 06:55:59 51°13.699 2°55.792 46.5 1.8 34 12.7
2011-07-06 06:56:04 51°13.701 2°55.794 41.8 1.6 32 12.8
2011-07-06 06:56:08 51°13.703 2°55.795 39.2 1.2 31 12.7
2011-07-06 06:56:14 51°13.704 2°55.796 36.9 0.7 22 12.4
2011-07-06 06:56:19 51°13.704 2°55.795 34.3 0.1 334 12.5
2011-07-06 06:56:23 51°13.703 2°55.795 32.4 0.5 228 12.5
2011-07-06 06:56:28 51°13.703 2°55.794 31.2 0.6 218 12.6
2011-07-06 06:56:33 51°13.702 2°55.793 30.3 0.6 219 12.7
2011-07-06 06:56:38 51°13.701 2°55.793 29.8 0.3 247 12.6
2011-07-06 06:56:43 51°13.702 2°55.793 29.3 0.4 30 12.6
2011-07-06 06:56:48 51°13.703 2°55.793 26.7 1 10 12.7
2011-07-06 06:56:52 51°13.705 2°55.794 21.5 1.6 13 12.9
2011-07-06 06:56:57 51°13.709 2°55.795 15.3 2.5 7 12.5
2011-07-06 06:57:02 51°13.713 2°55.795 6.8 3.2 -999 12.8
2011-07-06 06:57:08 51°13.72 2°55.794 357.9 3.7 352 13.2
2011-07-06 06:57:12 51°13.724 2°55.792 348.7 4 341 12.5
2011-07-06 06:57:17 51°13.729 2°55.788 339.2 4.3 332 12.7
2011-07-06 06:57:22 51°13.735 2°55.782 329.7 4.8 324 11.8
2011-07-06 06:57:28 51°13.741 2°55.772 320.6 5.2 316 11.3
2011-07-06 06:57:32 51°13.745 2°55.766 314.9 5 316 10.5
2011-07-06 06:57:38 51°13.75 2°55.757 312.9 4.8 314 9.8
2011-07-06 06:57:42 51°13.754 2°55.75 311.5 4.8 313 9.6
2011-07-06 06:57:48 51°13.759 2°55.741 310 4.8 311 9.2
2011-07-06 06:57:52 51°13.762 2°55.734 309.1 4.8 312 9.2
2011-07-06 06:57:57 51°13.767 2°55.726 308.8 4.9 312 9.8
2011-07-06 06:58:02 51°13.772 2°55.718 309.8 4.9 312 9.8
2011-07-06 06:58:07 51°13.776 2°55.71 311.7 5 315 9.8
2011-07-06 06:58:12 51°13.781 2°55.702 313.3 4.9 315 10.1
2011-07-06 06:58:17 51°13.786 2°55.695 314.4 4.8 316 10.2
2011-07-06 06:58:23 51°13.791 2°55.687 315.1 4.6 316 10.5
2011-07-06 06:58:28 51°13.796 2°55.68 316.2 4.4 319 10.9
2011-07-06 06:58:32 51°13.8 2°55.675 317.6 4.3 319 11
2011-07-06 06:58:37 51°13.805 2°55.669 319.1 4.3 321 11.3
2011-07-06 06:58:42 51°13.809 2°55.664 320.9 4.3 323 11.3
2011-07-06 06:58:48 51°13.815 2°55.657 323 4.4 325 11.4
2011-07-06 06:58:52 51°13.82 2°55.652 325.1 4.5 327 11.6
2011-07-06 06:58:57 51°13.824 2°55.647 326.5 4.5 327 11.7
2011-07-06 06:59:02 51°13.83 2°55.641 327.5 4.6 329 11.7
2011-07-06 06:59:08 51°13.836 2°55.634 328.2 4.6 327 -999
2011-07-06 06:59:12 51°13.84 2°55.63 328.3 4.7 328 11.7
2011-07-06 06:59:18 51°13.848 2°55.623 328.2 4.8 327 11.6
2011-07-06 06:59:22 51°13.852 2°55.619 327.9 4.9 328 11.6
2011-07-06 06:59:28 51°13.859 2°55.612 327.8 5 328 11.8
2011-07-06 06:59:32 51°13.864 2°55.608 328.3 5 330 11.8
2011-07-06 06:59:37 51°13.87 2°55.602 329.2 5.1 330 11.9
2011-07-06 06:59:42 51°13.876 2°55.596 329.8 5.2 332 12
2011-07-06 06:59:48 51°13.884 2°55.589 330.1 5.2 331 11.9
2011-07-06 06:59:52 51°13.889 2°55.584 330.3 5.2 332 12
2011-07-06 06:59:57 51°13.895 2°55.578 330.3 5.2 330 11.9
2011-07-06 07:00:02 51°13.901 2°55.572 329.2 5.3 329 -999
2011-07-06 07:00:08 51°13.909 2°55.566 328.1 5.3 329 11.9
2011-07-06 07:00:12 51°13.915 2°55.562 327.8 5.3 329 11.8
2011-07-06 07:00:17 51°13.921 2°55.556 328.2 5.3 330 11.9
2011-07-06 07:00:22 51°13.927 2°55.55 328.7 5.4 330 11.9
2011-07-06 07:00:28 51°13.935 2°55.542 328.8 5.5 330 11.8
2011-07-06 07:00:32 51°13.941 2°55.537 328.2 5.6 329 11.9
2011-07-06 07:00:37 51°13.947 2°55.531 328.4 5.7 330 11.9
2011-07-06 07:00:42 51°13.954 2°55.524 329.5 5.7 331 11.9
2011-07-06 07:00:47 51°13.961 2°55.518 330.5 5.8 332 11.9
2011-07-06 07:00:52 51°13.968 2°55.512 331.1 5.8 332 11.9
2011-07-06 07:00:57 51°13.975 2°55.506 331.9 5.9 333 11.8
2011-07-06 07:01:03 51°13.984 2°55.499 332.7 5.9 333 -999
2011-07-06 07:01:08 51°13.992 2°55.493 333.2 6 334 11.8
2011-07-06 07:01:12 51°13.998 2°55.489 333.9 6.1 334 11.7
2011-07-06 07:01:18 51°14.007 2°55.483 335 6.1 336 11.7
2011-07-06 07:01:23 51°14.015 2°55.478 335.9 6.1 336 11.6
2011-07-06 07:01:28 51°14.024 2°55.472 336.4 6.2 337 12.1
2011-07-06 07:01:32 51°14.03 2°55.468 336.7 6.2 336 11.6
2011-07-06 07:01:38 51°14.04 2°55.461 336.9 6.3 337 11.4
2011-07-06 07:01:43 51°14.048 2°55.455 337.1 6.4 337 11.5
2011-07-06 07:01:48 51°14.056 2°55.45 337.5 6.5 338 11.6
2011-07-06 07:01:52 51°14.063 2°55.446 337.6 6.5 338 -999
2011-07-06 07:01:57 51°14.072 2°55.44 337.6 6.6 337 11.5
2011-07-06 07:02:03 51°14.082 2°55.433 337.6 6.7 338 11.5
2011-07-06 07:02:08 51°14.091 2°55.427 337.8 6.8 337 11.5
2011-07-06 07:02:12 51°14.098 2°55.423 337.6 6.9 337 11.6
2011-07-06 07:02:17 51°14.107 2°55.417 337.5 7.1 337 11.5
2011-07-06 07:02:22 51°14.116 2°55.41 337.3 7.2 336 11.5
2011-07-06 07:02:28 51°14.127 2°55.402 336.8 7.3 336 11.5
2011-07-06 07:02:32 51°14.135 2°55.397 336.5 7.4 336 11.4
2011-07-06 07:02:37 51°14.144 2°55.389 336 7.6 336 11.4
2011-07-06 07:02:42 51°14.154 2°55.383 336.2 7.7 337 11.4
2011-07-06 07:02:48 51°14.166 2°55.374 336.7 7.8 336 11.4
2011-07-06 07:02:52 51°14.174 2°55.369 336.1 7.9 336 11.4
2011-07-06 07:02:57 51°14.184 2°55.361 335.2 8 335 11.4
2011-07-06 07:03:02 51°14.194 2°55.353 334.7 8.1 334 11.5
2011-07-06 07:03:07 51°14.204 2°55.345 333.8 8.1 332 11.4
2011-07-06 07:03:12 51°14.214 2°55.337 332.8 8.2 332 11.5
2011-07-06 07:03:17 51°14.224 2°55.328 332.1 8.2 332 11.7
2011-07-06 07:03:23 51°14.237 2°55.318 331.8 8.3 333 -999
2011-07-06 07:03:28 51°14.247 2°55.31 332.8 8.3 334 11.5
2011-07-06 07:03:32 51°14.255 2°55.303 333.4 8.4 334 -999
2011-07-06 07:03:38 51°14.268 2°55.293 332.9 8.4 331 11.4
2011-07-06 07:03:43 51°14.278 2°55.284 331.5 8.6 331 11.4
2011-07-06 07:03:48 51°14.289 2°55.274 330.8 8.8 331 11.5
2011-07-06 07:03:53 51°14.3 2°55.265 330.8 8.9 331 11.5
2011-07-06 07:03:58 51°14.31 2°55.255 330.7 9 330 11.4
2011-07-06 07:04:03 51°14.321 2°55.244 329.8 9.2 329 11.2
2011-07-06 07:04:08 51°14.332 2°55.234 329.4 9.2 329 11.3
2011-07-06 07:04:12 51°14.341 2°55.226 329.3 9.3 329 -999
2011-07-06 07:04:18 51°14.355 2°55.212 328.5 9.4 328 11.3
2011-07-06 07:04:23 51°14.366 2°55.202 328.7 9.4 330 11.3
2011-07-06 07:04:28 51°14.377 2°55.192 330 9.6 330 11.3
2011-07-06 07:04:32 51°14.387 2°55.183 330.5 9.7 330 11.2
2011-07-06 07:04:38 51°14.401 2°55.17 329.8 10 328 10.8
2011-07-06 07:04:43 51°14.413 2°55.158 328.8 10.1 328 11.3
2011-07-06 07:04:48 51°14.426 2°55.146 328.8 10.3 330 11.3
2011-07-06 07:04:53 51°14.438 2°55.135 329.4 10.4 330 11.3
2011-07-06 07:04:58 51°14.451 2°55.122 328.6 10.7 328 11.4
2011-07-06 07:05:02 51°14.461 2°55.112 327.9 11 328 11.4
2011-07-06 07:05:08 51°14.478 2°55.096 328.5 11.5 329 11.3
2011-07-06 07:05:13 51°14.492 2°55.083 329.6 11.8 330 11.4
2011-07-06 07:05:18 51°14.506 2°55.068 328.4 12.1 327 11.4
2011-07-06 07:05:23 51°14.52 2°55.053 327.6 12.2 327 11.7
2011-07-06 07:05:28 51°14.535 2°55.038 327.4 12.5 326 11.9
2011-07-06 07:05:33 51°14.549 2°55.022 326.2 12.7 325 12.5
2011-07-06 07:05:38 51°14.564 2°55.005 324.5 12.9 324 12.4
2011-07-06 07:05:43 51°14.578 2°54.989 324.4 12.9 324 12.6
2011-07-06 07:05:48 51°14.593 2°54.972 325.1 13 324 12.3
2011-07-06 07:05:53 51°14.607 2°54.954 323.8 13.1 322 12.2
2011-07-06 07:05:58 51°14.622 2°54.936 323.1 13 324 12.3
2011-07-06 07:06:03 51°14.637 2°54.92 323.8 13.1 324 12.5
2011-07-06 07:06:08 51°14.651 2°54.903 324.5 13.1 325 12.4
2011-07-06 07:06:13 51°14.666 2°54.887 325.5 13.1 325 12.4
2011-07-06 07:06:17 51°14.678 2°54.873 325.8 13.2 325 12.2
2011-07-06 07:06:23 51°14.696 2°54.853 325.6 13.1 325 12.5
2011-07-06 07:06:28 51°14.711 2°54.836 325.5 13.2 324 12.3
2011-07-06 07:06:33 51°14.725 2°54.819 325.2 13.2 324 12.3
2011-07-06 07:06:37 51°14.737 2°54.804 324.1 13.2 323 12.3
2011-07-06 07:06:43 51°14.754 2°54.783 323.3 13.2 322 12.4
2011-07-06 07:06:48 51°14.769 2°54.765 322.8 13.2 323 12.1
2011-07-06 07:06:53 51°14.783 2°54.747 322.3 13.2 322 12.6
2011-07-06 07:06:57 51°14.795 2°54.733 322.3 13.2 322 12.9
2011-07-06 07:07:03 51°14.812 2°54.711 322.3 13.2 322 12.9
2011-07-06 07:07:08 51°14.827 2°54.693 322.5 13.2 321 12.9
2011-07-06 07:07:13 51°14.841 2°54.675 322.5 13.2 321 13.1
2011-07-06 07:07:18 51°14.856 2°54.658 322.1 13.2 322 12.7
2011-07-06 07:07:23 51°14.87 2°54.64 321.8 13.1 322 12.9
2011-07-06 07:07:28 51°14.885 2°54.622 321.9 13.2 323 13.1
2011-07-06 07:07:33 51°14.899 2°54.605 323 13.1 324 13.1
2011-07-06 07:07:38 51°14.914 2°54.587 323.3 13.2 323 13.1
2011-07-06 07:07:42 51°14.926 2°54.574 323.5 13.2 325 12.8
2011-07-06 07:07:48 51°14.944 2°54.554 324.3 13.1 325 12.5
2011-07-06 07:07:53 51°14.959 2°54.539 325.3 13 328 12.8
2011-07-06 07:07:58 51°14.975 2°54.524 326.3 13 328 12.6
2011-07-06 07:08:03 51°14.99 2°54.509 327 13 328 12.8
2011-07-06 07:08:08 51°15.005 2°54.494 327.3 13 329 12.7
2011-07-06 07:08:13 51°15.021 2°54.479 327.6 13 329 12.1
2011-07-06 07:08:18 51°15.036 2°54.463 327 12.9 327 12.4
2011-07-06 07:08:23 51°15.051 2°54.448 326.4 12.9 328 12.2
2011-07-06 07:08:28 51°15.066 2°54.432 326.4 12.9 327 12.2
2011-07-06 07:08:33 51°15.081 2°54.417 326 13 326 12.2
2011-07-06 07:08:37 51°15.093 2°54.404 324.9 12.9 326 12.5
2011-07-06 07:08:43 51°15.11 2°54.384 324.1 12.9 324 12.5
2011-07-06 07:08:48 51°15.124 2°54.367 323.1 12.8 323 12.1
2011-07-06 07:08:53 51°15.138 2°54.349 321.7 12.9 322 12.3
2011-07-06 07:08:57 51°15.15 2°54.335 320.5 12.8 322 12.3
2011-07-06 07:09:03 51°15.166 2°54.314 320.2 12.8 322 12.1
2011-07-06 07:09:08 51°15.18 2°54.296 320.2 12.8 321 12.1
2011-07-06 07:09:13 51°15.194 2°54.278 319.9 12.8 321 12.5
2011-07-06 07:09:18 51°15.208 2°54.26 319.6 12.8 321 12.8
2011-07-06 07:09:23 51°15.222 2°54.242 319.1 12.8 320 12.4
2011-07-06 07:09:28 51°15.235 2°54.222 318.7 12.9 319 12.4
2011-07-06 07:09:33 51°15.248 2°54.204 318.5 12.9 319 12.4
2011-07-06 07:09:38 51°15.262 2°54.185 318.8 12.9 320 12.4
2011-07-06 07:09:43 51°15.276 2°54.167 319.4 12.9 321 12.7
2011-07-06 07:09:48 51°15.29 2°54.149 319.5 12.9 320 12.7
2011-07-06 07:09:53 51°15.304 2°54.131 319.5 12.8 320 12.7
2011-07-06 07:09:58 51°15.317 2°54.113 320.1 12.9 321 12.7
2011-07-06 07:10:02 51°15.329 2°54.099 320.3 12.9 321 12.9
2011-07-06 07:10:08 51°15.345 2°54.078 321 12.9 322 12.9
2011-07-06 07:10:13 51°15.36 2°54.06 321.5 12.9 321 12.8
2011-07-06 07:10:18 51°15.374 2°54.042 321.3 12.9 321 12.8
2011-07-06 07:10:23 51°15.388 2°54.024 321.3 12.9 322 12.9
2011-07-06 07:10:28 51°15.402 2°54.007 321.6 12.9 322 12.9
2011-07-06 07:10:33 51°15.416 2°53.989 322.3 12.9 322 12.7
2011-07-06 07:10:37 51°15.428 2°53.976 322.3 12.9 323 12.9
2011-07-06 07:10:43 51°15.445 2°53.955 322.9 13 324 13.1
2011-07-06 07:10:48 51°15.46 2°53.939 323.8 12.9 324 12.9
2011-07-06 07:10:53 51°15.474 2°53.922 323.8 12.9 325 12.9
2011-07-06 07:10:57 51°15.486 2°53.909 324.2 12.8 324 12.9
2011-07-06 07:11:03 51°15.503 2°53.889 324.4 12.8 325 12.9
2011-07-06 07:11:08 51°15.518 2°53.873 324.5 12.8 325 12.9
2011-07-06 07:11:13 51°15.532 2°53.857 324.5 12.8 325 12.9
2011-07-06 07:11:17 51°15.543 2°53.844 324.5 12.8 325 13
2011-07-06 07:11:23 51°15.561 2°53.824 323.8 12.7 324 12.6
2011-07-06 07:11:28 51°15.575 2°53.807 323.1 12.7 322 12.7
2011-07-06 07:11:33 51°15.589 2°53.789 321.9 12.8 322 12.3
2011-07-06 07:11:37 51°15.6 2°53.775 321.6 12.7 323 12.4
2011-07-06 07:11:43 51°15.617 2°53.755 322 12.7 322 12.5
2011-07-06 07:11:48 51°15.63 2°53.738 321.8 12.7 322 12.5
2011-07-06 07:11:53 51°15.644 2°53.72 321.6 12.7 322 12.5
2011-07-06 07:11:57 51°15.655 2°53.706 321.5 12.7 321 12.4
2011-07-06 07:12:03 51°15.672 2°53.685 321.4 12.7 321 12.4
2011-07-06 07:12:08 51°15.686 2°53.668 321 12.7 321 12.4
2011-07-06 07:12:13 51°15.7 2°53.651 321.6 12.7 323 12.3
2011-07-06 07:12:18 51°15.714 2°53.634 322.3 12.7 323 12.6
2011-07-06 07:12:23 51°15.728 2°53.618 322.9 12.7 323 12.2
2011-07-06 07:12:28 51°15.742 2°53.601 323.2 12.7 324 12.4
2011-07-06 07:12:33 51°15.756 2°53.584 323.4 12.7 322 12.8
2011-07-06 07:12:38 51°15.77 2°53.567 323.1 12.7 323 12.5
2011-07-06 07:12:43 51°15.784 2°53.55 323.1 12.7 323 12.7
2011-07-06 07:12:48 51°15.798 2°53.532 322.9 12.8 322 13
2011-07-06 07:12:53 51°15.812 2°53.515 322.5 12.7 322 12.7
2011-07-06 07:12:57 51°15.823 2°53.501 321.9 12.7 321 13
2011-07-06 07:13:03 51°15.84 2°53.48 321.7 12.7 322 12.7
2011-07-06 07:13:08 51°15.854 2°53.462 322 12.8 321 12.8
2011-07-06 07:13:13 51°15.868 2°53.445 322.1 12.8 322 13
2011-07-06 07:13:17 51°15.879 2°53.431 322.6 12.8 323 12.2
2011-07-06 07:13:23 51°15.897 2°53.411 322.6 12.8 323 12.9
2011-07-06 07:13:28 51°15.911 2°53.394 323.2 12.8 324 12.6
2011-07-06 07:13:33 51°15.925 2°53.377 323.3 12.8 323 12.2
2011-07-06 07:13:37 51°15.937 2°53.364 323.6 12.8 324 13
2011-07-06 07:13:43 51°15.954 2°53.343 323.6 12.9 322 12.6
2011-07-06 07:13:48 51°15.968 2°53.325 323.1 12.8 323 12.5
2011-07-06 07:13:53 51°15.982 2°53.308 323 12.8 322 12.7
2011-07-06 07:13:58 51°15.996 2°53.29 322.7 12.9 322 12.4
2011-07-06 07:14:03 51°16.01 2°53.273 322.7 12.9 322 12.9
2011-07-06 07:14:08 51°16.024 2°53.256 322.3 12.9 323 12.4
2011-07-06 07:14:13 51°16.039 2°53.239 323.1 12.9 323 12.6
2011-07-06 07:14:18 51°16.053 2°53.222 323.4 12.9 323 12.7
2011-07-06 07:14:22 51°16.065 2°53.209 323.6 12.9 324 13
2011-07-06 07:14:28 51°16.082 2°53.189 324.9 12.9 326 12.4
2011-07-06 07:14:33 51°16.097 2°53.174 326.7 12.8 328 13.1
2011-07-06 07:14:38 51°16.113 2°53.16 329 12.9 330 13.2
2011-07-06 07:14:43 51°16.129 2°53.147 331.1 12.9 333 12.7
2011-07-06 07:14:48 51°16.145 2°53.136 334 12.9 336 12.5
2011-07-06 07:14:53 51°16.162 2°53.125 336.2 12.9 338 12.4
2011-07-06 07:14:57 51°16.175 2°53.116 338.3 12.9 339 12.4
2011-07-06 07:15:03 51°16.196 2°53.105 339.9 13 340 12.3
2011-07-06 07:15:08 51°16.213 2°53.096 341.2 13 342 12.5
2011-07-06 07:15:13 51°16.23 2°53.088 343.1 13 344 12.6
2011-07-06 07:15:17 51°16.244 2°53.082 343.2 12.9 344 12.3
2011-07-06 07:15:23 51°16.265 2°53.073 344.7 13 344 12.5
2011-07-06 07:15:28 51°16.282 2°53.064 343.7 13 343 12.4
2011-07-06 07:15:33 51°16.299 2°53.056 343.5 13 345 12.5
2011-07-06 07:15:37 51°16.313 2°53.05 344.2 13 344 12.5
2011-07-06 07:15:43 51°16.334 2°53.041 344.8 13 344 12.4
2011-07-06 07:15:48 51°16.351 2°53.032 343.8 13 343 12.3
2011-07-06 07:15:53 51°16.368 2°53.024 343 12.9 343 12.1
2011-07-06 07:15:58 51°16.385 2°53.016 343.5 12.9 343 12.3
2011-07-06 07:16:02 51°16.399 2°53.009 342.9 13 343 12.5
2011-07-06 07:16:08 51°16.42 2°53 343.4 12.9 344 12.5
2011-07-06 07:16:13 51°16.437 2°52.991 343.6 12.9 343 12.6
2011-07-06 07:16:18 51°16.454 2°52.983 344.1 12.9 344 12.4
2011-07-06 07:16:23 51°16.471 2°52.975 343.4 12.9 343 12.3
2011-07-06 07:16:28 51°16.488 2°52.967 343.7 12.9 343 12.5
2011-07-06 07:16:33 51°16.505 2°52.959 343.3 12.9 343 12.4
2011-07-06 07:16:37 51°16.519 2°52.952 343.1 12.8 342 12.4
2011-07-06 07:16:43 51°16.539 2°52.942 342.7 12.8 343 12.2
2011-07-06 07:16:48 51°16.556 2°52.933 342.7 12.9 343 12.2
2011-07-06 07:16:53 51°16.573 2°52.925 343.1 12.8 343 12.3
2011-07-06 07:16:58 51°16.59 2°52.916 343.1 12.8 342 12.1
2011-07-06 07:17:03 51°16.607 2°52.908 343.1 12.8 343 12.2
2011-07-06 07:17:08 51°16.624 2°52.9 343 12.8 343 11.9
2011-07-06 07:17:13 51°16.641 2°52.892 343.4 12.8 343 11.8
2011-07-06 07:17:17 51°16.655 2°52.885 343.4 12.9 342 12
2011-07-06 07:17:23 51°16.675 2°52.875 343 12.9 343 11.5
2011-07-06 07:17:28 51°16.692 2°52.866 342.9 12.9 343 11.6
2011-07-06 07:17:33 51°16.709 2°52.858 342.9 12.8 343 11.2
2011-07-06 07:17:37 51°16.723 2°52.851 343.1 12.9 343 10.8
2011-07-06 07:17:43 51°16.743 2°52.84 342.6 12.8 342 11.1
2011-07-06 07:17:48 51°16.76 2°52.832 342.6 12.8 342 10.5
2011-07-06 07:17:53 51°16.777 2°52.822 341.9 12.9 340 10.2
2011-07-06 07:17:57 51°16.791 2°52.815 341.2 12.8 341 10.3
2011-07-06 07:18:03 51°16.811 2°52.804 340.7 12.8 340 10.3
2011-07-06 07:18:08 51°16.828 2°52.794 340 12.8 340 10
2011-07-06 07:18:13 51°16.844 2°52.784 339.9 12.9 339 10
2011-07-06 07:18:18 51°16.861 2°52.774 338.6 12.8 340 9.5
2011-07-06 07:18:23 51°16.878 2°52.764 339.3 12.9 339 9.7
2011-07-06 07:18:28 51°16.894 2°52.754 338.9 12.8 339 9.9
2011-07-06 07:18:33 51°16.911 2°52.743 339.2 12.9 339 9.9
2011-07-06 07:18:38 51°16.927 2°52.733 339.2 12.8 339 10.3
2011-07-06 07:18:42 51°16.941 2°52.725 339.5 12.9 339 9.9
2011-07-06 07:18:48 51°16.961 2°52.713 339.2 12.9 340 10.1
2011-07-06 07:18:53 51°16.978 2°52.704 340.2 12.9 340 10.2
2011-07-06 07:18:58 51°16.995 2°52.693 339.9 13 339 10.3
2011-07-06 07:19:03 51°17.012 2°52.684 339.9 12.9 341 10.4
2011-07-06 07:19:08 51°17.029 2°52.674 340.2 13 339 10.4
2011-07-06 07:19:13 51°17.046 2°52.664 339.6 13 340 10.3
2011-07-06 07:19:17 51°17.059 2°52.656 339.6 13 339 10.4
2011-07-06 07:19:23 51°17.08 2°52.644 339 13 340 10.2
2011-07-06 07:19:28 51°17.097 2°52.634 339.2 13 340 10
2011-07-06 07:19:33 51°17.113 2°52.623 338.7 12.9 339 10
2011-07-06 07:19:37 51°17.127 2°52.616 339.2 12.9 339 9.7
2011-07-06 07:19:43 51°17.147 2°52.604 339 12.9 340 9.9
2011-07-06 07:19:48 51°17.164 2°52.594 339.4 12.9 340 10.3
2011-07-06 07:19:53 51°17.181 2°52.585 339.8 12.9 340 10.4
2011-07-06 07:19:57 51°17.194 2°52.577 339.8 12.9 341 10.5
2011-07-06 07:20:03 51°17.215 2°52.565 340.5 12.9 340 10.2
2011-07-06 07:20:08 51°17.232 2°52.557 340.3 13.1 342 10.9
2011-07-06 07:20:13 51°17.249 2°52.547 340.9 13 341 10.9
2011-07-06 07:20:17 51°17.262 2°52.541 341.3 12.9 343 10.2
2011-07-06 07:20:23 51°17.283 2°52.53 342 12.8 343 10.7
2011-07-06 07:20:28 51°17.3 2°52.521 342 12.9 341 10.5
2011-07-06 07:20:33 51°17.317 2°52.512 341.2 12.9 342 10.9
2011-07-06 07:20:38 51°17.334 2°52.502 341 12.9 340 10.5
2011-07-06 07:20:43 51°17.351 2°52.493 340.7 13 341 10.5
2011-07-06 07:20:48 51°17.368 2°52.483 340.5 12.9 340 10.7
2011-07-06 07:20:53 51°17.385 2°52.473 340.4 12.9 340 10.7
2011-07-06 07:20:58 51°17.401 2°52.463 339.7 13 339 10.6
2011-07-06 07:21:03 51°17.418 2°52.454 339.7 13 341 11.1
2011-07-06 07:21:08 51°17.435 2°52.444 339.9 13 341 10.7
2011-07-06 07:21:13 51°17.452 2°52.435 340.7 13 341 10.7
2011-07-06 07:21:18 51°17.469 2°52.428 343.1 13 345 10.6
2011-07-06 07:21:23 51°17.487 2°52.42 343.6 12.9 343 10.6
2011-07-06 07:21:28 51°17.504 2°52.414 346.3 12.9 347 11.1
2011-07-06 07:21:33 51°17.522 2°52.409 346.8 12.8 349 11
2011-07-06 07:21:38 51°17.539 2°52.403 348.6 12.9 347 11
2011-07-06 07:21:43 51°17.557 2°52.397 348.5 12.9 348 10.9
2011-07-06 07:21:48 51°17.574 2°52.391 348.9 12.9 349 11.1
2011-07-06 07:21:53 51°17.592 2°52.386 349.7 13 350 10.6
2011-07-06 07:21:57 51°17.607 2°52.383 351.2 13 351 11
2011-07-06 07:22:03 51°17.628 2°52.378 352 13 352 10.9
2011-07-06 07:22:08 51°17.645 2°52.373 352.2 13 352 11
2011-07-06 07:22:13 51°17.663 2°52.37 353 13 352 10.4
2011-07-06 07:22:17 51°17.678 2°52.367 353.6 12.9 353 10.6
2011-07-06 07:22:23 51°17.699 2°52.362 353.3 12.9 351 10.6
2011-07-06 07:22:28 51°17.717 2°52.358 352.3 12.8 352 10.9
2011-07-06 07:22:33 51°17.735 2°52.354 352.1 12.9 351 11
2011-07-06 07:22:38 51°17.753 2°52.35 352.7 12.9 353 11.1
2011-07-06 07:22:42 51°17.767 2°52.347 353.7 13 352 10.8
2011-07-06 07:22:48 51°17.788 2°52.344 354.1 12.8 355 10.6
2011-07-06 07:22:53 51°17.806 2°52.341 356.2 12.9 354 10.7
2011-07-06 07:22:58 51°17.823 2°52.337 355.8 12.9 354 10.8
2011-07-06 07:23:03 51°17.841 2°52.336 355 12.8 356 10.9
2011-07-06 07:23:08 51°17.859 2°52.333 356.2 12.9 356 10.7
2011-07-06 07:23:13 51°17.877 2°52.332 357.7 12.9 357 11
2011-07-06 07:23:17 51°17.891 2°52.329 356.7 12.9 357 10.9
2011-07-06 07:23:23 51°17.912 2°52.327 358.6 12.8 357 10.8
2011-07-06 07:23:28 51°17.93 2°52.325 355.6 12.8 354 10.8
2011-07-06 07:23:33 51°17.948 2°52.323 356.9 12.9 357 11.2
2011-07-06 07:23:38 51°17.966 2°52.322 356.3 12.9 356 11
2011-07-06 07:23:43 51°17.984 2°52.318 356.6 12.9 354 10.8
2011-07-06 07:23:48 51°18.001 2°52.317 356.5 12.9 357 10.9
2011-07-06 07:23:53 51°18.019 2°52.315 356.8 13 356 10.9
2011-07-06 07:23:57 51°18.034 2°52.314 358.9 12.9 358 10.8
2011-07-06 07:24:03 51°18.055 2°52.312 358.6 12.9 356 10.8
2011-07-06 07:24:08 51°18.073 2°52.312 358.2 12.7 359 11.2
2011-07-06 07:24:13 51°18.091 2°52.311 359 12.7 359 11.1
2011-07-06 07:24:17 51°18.105 2°52.311 0.5 12.8 359 11
2011-07-06 07:24:23 51°18.126 2°52.312 1.3 12.8 2 10.8
2011-07-06 07:24:28 51°18.144 2°52.312 2.9 12.8 1 11.5
2011-07-06 07:24:33 51°18.162 2°52.314 2.8 12.9 3 11.1
2011-07-06 07:24:37 51°18.176 2°52.314 5.2 12.9 2 11.2
2011-07-06 07:24:43 51°18.197 2°52.315 3 12.7 1 11
2011-07-06 07:24:48 51°18.215 2°52.316 3 12.7 1 11.4
2011-07-06 07:24:53 51°18.233 2°52.317 2.3 12.8 1 11.5
2011-07-06 07:24:57 51°18.247 2°52.317 3 12.8 -999 11.2
2011-07-06 07:25:03 51°18.269 2°52.316 1.6 12.9 359 11.1
2011-07-06 07:25:08 51°18.287 2°52.317 2.2 13 1 11
2011-07-06 07:25:13 51°18.305 2°52.315 0.1 13 357 11.4
2011-07-06 07:25:18 51°18.322 2°52.315 359.9 13 359 11.4
2011-07-06 07:25:23 51°18.341 2°52.314 359.7 12.9 358 11.7
2011-07-06 07:25:28 51°18.358 2°52.313 359.3 12.9 358 11.7
2011-07-06 07:25:33 51°18.376 2°52.313 0.3 12.9 -999 11.5
2011-07-06 07:25:38 51°18.394 2°52.314 0.8 12.9 1 11.6
2011-07-06 07:25:43 51°18.412 2°52.313 0.7 12.9 358 11.5
2011-07-06 07:25:48 51°18.43 2°52.313 0.8 12.8 -999 11.8
2011-07-06 07:25:53 51°18.448 2°52.311 0.1 12.9 358 11.6
2011-07-06 07:25:58 51°18.466 2°52.312 359.9 13 -999 11.8
2011-07-06 07:26:03 51°18.484 2°52.31 -999 12.9 357 12.1
2011-07-06 07:26:08 51°18.502 2°52.31 359.2 13 359 11.9
2011-07-06 07:26:13 51°18.52 2°52.307 0.3 13 356 11.8
2011-07-06 07:26:18 51°18.538 2°52.308 359.1 13 359 12.1
2011-07-06 07:26:23 51°18.556 2°52.305 359.7 12.9 356 11.8
2011-07-06 07:26:28 51°18.573 2°52.306 359.4 12.9 -999 11.9
2011-07-06 07:26:33 51°18.591 2°52.304 -999 12.9 358 12.1
2011-07-06 07:26:37 51°18.606 2°52.304 0.1 13 359 12
2011-07-06 07:26:43 51°18.627 2°52.302 359.6 12.9 357 12.3
2011-07-06 07:26:48 51°18.645 2°52.301 358.8 12.8 358 12.1
2011-07-06 07:26:53 51°18.663 2°52.3 359.4 12.9 358 12.4
2011-07-06 07:26:58 51°18.681 2°52.299 358.4 13 357 12.2
2011-07-06 07:27:03 51°18.7 2°52.298 359.3 13.1 358 12.3
2011-07-06 07:27:08 51°18.718 2°52.297 0.1 13 359 12.7
2011-07-06 07:27:13 51°18.736 2°52.297 0.1 12.9 359 12.6
2011-07-06 07:27:18 51°18.754 2°52.296 0.2 12.9 358 12.3
2011-07-06 07:27:22 51°18.768 2°52.296 1.2 13 -999 12.7
2011-07-06 07:27:28 51°18.79 2°52.294 359.4 12.9 356 12.7
2011-07-06 07:27:33 51°18.807 2°52.295 359.4 12.9 1 13.1
2011-07-06 07:27:38 51°18.825 2°52.294 359.8 12.9 358 12.7
2011-07-06 07:27:43 51°18.843 2°52.294 0.9 12.9 1 13
2011-07-06 07:27:48 51°18.861 2°52.294 2.3 12.8 -999 13.2
2011-07-06 07:27:53 51°18.879 2°52.296 3 12.9 4 13.3
2011-07-06 07:27:57 51°18.893 2°52.296 3 12.9 3 13.6
2011-07-06 07:28:03 51°18.915 2°52.3 5.3 13 5 13.5
2011-07-06 07:28:08 51°18.933 2°52.3 4.1 13 1 13.4
2011-07-06 07:28:13 51°18.951 2°52.302 4.1 13 4 13.4
2011-07-06 07:28:18 51°18.969 2°52.304 4.8 13.1 4 13.3
2011-07-06 07:28:23 51°18.987 2°52.305 4.4 13 3 13.5
2011-07-06 07:28:28 51°19.005 2°52.308 5.5 12.9 6 13.8
2011-07-06 07:28:33 51°19.023 2°52.311 5.8 13 4 14.1
2011-07-06 07:28:38 51°19.041 2°52.314 7.2 13.1 7 13.7
2011-07-06 07:28:43 51°19.059 2°52.316 7.5 13 5 14.2
2011-07-06 07:28:48 51°19.077 2°52.32 7.6 13 7 14.2
2011-07-06 07:28:53 51°19.094 2°52.323 7.8 12.9 6 14.1
2011-07-06 07:28:57 51°19.109 2°52.326 8.1 12.8 8 14.3
2011-07-06 07:29:03 51°19.13 2°52.331 9.6 12.9 8 14.3
2011-07-06 07:29:08 51°19.148 2°52.335 9.5 12.9 9 14.4
2011-07-06 07:29:13 51°19.165 2°52.34 10.9 13 10 14.6
2011-07-06 07:29:18 51°19.183 2°52.343 10.4 12.9 7 14.4
2011-07-06 07:29:22 51°19.197 2°52.348 10.2 12.9 11 14.5
2011-07-06 07:29:28 51°19.218 2°52.353 10.1 12.9 7 14.7
2011-07-06 07:29:33 51°19.236 2°52.358 10.9 13 11 14.8
2011-07-06 07:29:38 51°19.254 2°52.361 11.4 13 8 14.8
2011-07-06 07:29:43 51°19.272 2°52.366 9.8 13 9 15
2011-07-06 07:29:48 51°19.29 2°52.37 9.6 13 8 15
2011-07-06 07:29:53 51°19.307 2°52.374 10.8 12.9 9 15
2011-07-06 07:29:57 51°19.321 2°52.377 10.2 12.9 8 15.2
2011-07-06 07:30:03 51°19.342 2°52.383 10.7 12.9 9 15.1
2011-07-06 07:30:08 51°19.36 2°52.389 11.9 13 12 15.4
2011-07-06 07:30:13 51°19.377 2°52.395 13.7 13 13 15.2
2011-07-06 07:30:18 51°19.395 2°52.403 15.6 12.9 14 15.1
2011-07-06 07:30:23 51°19.412 2°52.411 16.5 12.9 17 15.2
2011-07-06 07:30:28 51°19.429 2°52.42 18.5 12.9 18 15.3
2011-07-06 07:30:33 51°19.445 2°52.43 19 12.8 19 15.3
2011-07-06 07:30:37 51°19.458 2°52.437 22.2 12.7 18 15.5
2011-07-06 07:30:43 51°19.479 2°52.447 20.4 12.8 17 15.5
2011-07-06 07:30:48 51°19.495 2°52.457 20.5 12.7 19 15.1
2011-07-06 07:30:53 51°19.512 2°52.466 20.4 12.7 19 15.4
2011-07-06 07:30:57 51°19.525 2°52.474 21.6 12.7 21 15.5
2011-07-06 07:31:03 51°19.545 2°52.488 23.3 12.7 24 15.6
2011-07-06 07:31:08 51°19.561 2°52.498 24.8 12.8 22 15.6
2011-07-06 07:31:13 51°19.577 2°52.512 26.3 12.8 27 15.6
2011-07-06 07:31:17 51°19.589 2°52.523 29 12.8 30 15.9
2011-07-06 07:31:23 51°19.607 2°52.541 32.3 12.7 33 15.6
2011-07-06 07:31:28 51°19.621 2°52.557 35.9 12.6 34 15.8
2011-07-06 07:31:33 51°19.635 2°52.574 35.5 12.6 36 15.7
2011-07-06 07:31:38 51°19.648 2°52.592 38.6 12.5 41 15.8
2011-07-06 07:31:43 51°19.661 2°52.611 43.1 12.5 44 15.8
2011-07-06 07:31:48 51°19.674 2°52.63 44.4 12.5 42 15.6
2011-07-06 07:31:53 51°19.685 2°52.651 45.2 12.5 47 15.5
2011-07-06 07:31:58 51°19.698 2°52.671 48.5 12.7 47 15.7
2011-07-06 07:32:02 51°19.707 2°52.687 48 12.7 47 15.6
2011-07-06 07:32:08 51°19.72 2°52.713 50.4 12.7 51 15.7
2011-07-06 07:32:13 51°19.732 2°52.734 50.9 12.6 48 16
2011-07-06 07:32:18 51°19.743 2°52.756 49.8 12.6 50 15.8
2011-07-06 07:32:23 51°19.754 2°52.778 52.2 12.6 53 15.7
2011-07-06 07:32:28 51°19.765 2°52.799 52 12.6 49 15.9
2011-07-06 07:32:33 51°19.776 2°52.821 51.9 12.6 52 15.8
2011-07-06 07:32:38 51°19.787 2°52.842 51.9 12.6 51 15.8
2011-07-06 07:32:43 51°19.798 2°52.864 50.9 12.6 50 15.8
2011-07-06 07:32:48 51°19.809 2°52.887 51.6 12.8 51 15.8
2011-07-06 07:32:53 51°19.821 2°52.907 50.2 12.8 47 15.7
2011-07-06 07:32:57 51°19.83 2°52.925 49.5 12.8 51 16
2011-07-06 07:33:03 51°19.845 2°52.951 49.2 12.9 48 16.1
2011-07-06 07:33:08 51°19.856 2°52.973 49.4 13 50 15.9
2011-07-06 07:33:13 51°19.868 2°52.995 49.9 13 49 15.9
2011-07-06 07:33:17 51°19.878 2°53.012 49.2 13.1 49 15.9
2011-07-06 07:33:23 51°19.892 2°53.038 49.4 12.9 48 15.8
2011-07-06 07:33:28 51°19.904 2°53.059 49.6 12.8 48 15.9
2011-07-06 07:33:33 51°19.916 2°53.081 48.9 12.9 48 16.1
2011-07-06 07:33:37 51°19.925 2°53.098 49.4 12.9 48 15.9
2011-07-06 07:33:43 51°19.94 2°53.123 48.7 13 48 16
2011-07-06 07:33:48 51°19.951 2°53.145 48.6 12.8 49 15.8
2011-07-06 07:33:53 51°19.963 2°53.166 49.9 12.9 50 15.9
2011-07-06 07:33:58 51°19.976 2°53.188 48.9 13.1 47 15.9
2011-07-06 07:34:02 51°19.984 2°53.206 50 13.1 52 15.9
2011-07-06 07:34:08 51°19.999 2°53.232 50.2 13.1 48 15.8
2011-07-06 07:34:13 51°20.011 2°53.254 49.2 13.2 49 16
2011-07-06 07:34:18 51°20.024 2°53.275 48.7 13.2 46 16
2011-07-06 07:34:23 51°20.036 2°53.296 47.8 13.2 47 15.9
2011-07-06 07:34:28 51°20.05 2°53.315 45.8 13.1 42 15.8
2011-07-06 07:34:33 51°20.063 2°53.335 44.6 13.1 43 16
2011-07-06 07:34:37 51°20.074 2°53.35 42.9 12.9 41 16
2011-07-06 07:34:43 51°20.09 2°53.373 43.8 12.8 43 16.2
2011-07-06 07:34:48 51°20.104 2°53.39 41.9 12.7 38 16.1
2011-07-06 07:34:53 51°20.117 2°53.409 40.8 12.7 42 16.1
2011-07-06 07:34:58 51°20.131 2°53.426 41.4 12.6 38 16
2011-07-06 07:35:03 51°20.144 2°53.445 41.5 12.6 41 16
2011-07-06 07:35:08 51°20.157 2°53.462 41.4 12.6 39 16.1
2011-07-06 07:35:13 51°20.17 2°53.48 41.1 12.6 40 16.2
2011-07-06 07:35:17 51°20.181 2°53.495 42.2 12.6 40 16.3
2011-07-06 07:35:23 51°20.197 2°53.516 41.5 12.6 39 16.2
2011-07-06 07:35:28 51°20.21 2°53.535 42.2 12.6 42 16.1
2011-07-06 07:35:33 51°20.224 2°53.552 41.5 12.7 38 16
2011-07-06 07:35:37 51°20.235 2°53.567 40.7 12.8 41 16.2
2011-07-06 07:35:43 51°20.252 2°53.586 41.3 12.7 36 16.2
2011-07-06 07:35:48 51°20.265 2°53.605 39.3 12.7 40 16.2
2011-07-06 07:35:53 51°20.28 2°53.62 38.1 12.7 34 16.1
2011-07-06 07:35:57 51°20.291 2°53.635 38.6 12.8 39 16.4
2011-07-06 07:36:03 51°20.309 2°53.654 39.1 12.7 35 16.3
2011-07-06 07:36:08 51°20.322 2°53.671 37.8 12.6 37 16.3
2011-07-06 07:36:13 51°20.337 2°53.686 36.8 12.5 34 16.2
2011-07-06 07:36:18 51°20.351 2°53.703 37.2 12.6 36 16.2
2011-07-06 07:36:23 51°20.365 2°53.718 36.1 12.5 34 16.3
2011-07-06 07:36:28 51°20.379 2°53.736 38.9 12.6 40 16.3
2011-07-06 07:36:33 51°20.393 2°53.753 39.9 12.5 37 16.4
2011-07-06 07:36:38 51°20.406 2°53.771 39.9 12.5 40 16.3
2011-07-06 07:36:42 51°20.416 2°53.785 41.2 12.4 39 16.4
2011-07-06 07:36:48 51°20.432 2°53.806 41.5 12.5 41 16.4
2011-07-06 07:36:53 51°20.446 2°53.824 41.4 12.6 38 16.3
2011-07-06 07:36:58 51°20.459 2°53.843 41.2 12.8 42 16.3
2011-07-06 07:37:03 51°20.472 2°53.861 42.8 12.7 41 16.5
2011-07-06 07:37:08 51°20.486 2°53.88 44 12.7 42 16.4
2011-07-06 07:37:13 51°20.5 2°53.897 41.7 12.7 37 16.6
2011-07-06 07:37:18 51°20.513 2°53.915 40.9 12.7 41 16.6
2011-07-06 07:37:23 51°20.527 2°53.933 40.7 12.7 38 16.5
2011-07-06 07:37:28 51°20.54 2°53.951 42.2 12.5 41 16.3
2011-07-06 07:37:33 51°20.553 2°53.969 41.8 12.5 40 16.4
2011-07-06 07:37:37 51°20.564 2°53.983 41 12.6 39 16.4
2011-07-06 07:37:43 51°20.58 2°54.006 43.1 12.7 41 16.4
2011-07-06 07:37:48 51°20.594 2°54.022 40.9 12.6 38 16.6
2011-07-06 07:37:53 51°20.607 2°54.041 41.2 12.5 41 16.4
2011-07-06 07:37:58 51°20.621 2°54.056 40 12.5 36 16.5
2011-07-06 07:38:03 51°20.634 2°54.074 39.4 12.5 40 16.5
2011-07-06 07:38:08 51°20.648 2°54.091 39.7 12.5 37 16.5
2011-07-06 07:38:13 51°20.662 2°54.108 39.9 12.5 38 16.7
2011-07-06 07:38:17 51°20.673 2°54.122 39.8 12.6 39 16.8
2011-07-06 07:38:23 51°20.689 2°54.143 41 12.6 38 16.6
2011-07-06 07:38:28 51°20.703 2°54.16 40.4 12.5 39 16.5
2011-07-06 07:38:33 51°20.716 2°54.176 40.3 12.4 37 16.5
2011-07-06 07:38:37 51°20.728 2°54.189 38.7 12.6 36 16.8
2011-07-06 07:38:42 51°20.742 2°54.206 38.7 12.5 36 16.4
2011-07-06 07:38:48 51°20.758 2°54.226 38.5 12.5 38 16.7
2011-07-06 07:38:53 51°20.772 2°54.242 39.3 12.5 36 16.8
2011-07-06 07:38:57 51°20.784 2°54.255 38.2 12.6 35 16.6
2011-07-06 07:39:03 51°20.801 2°54.274 37 12.7 35 16.6
2011-07-06 07:39:08 51°20.816 2°54.29 38 12.7 34 16.7
2011-07-06 07:39:13 51°20.83 2°54.305 36.5 12.6 32 16.8
2011-07-06 07:39:17 51°20.841 2°54.318 37.8 12.5 37 16.9
2011-07-06 07:39:23 51°20.858 2°54.338 39 12.6 36 16.9
2011-07-06 07:39:28 51°20.872 2°54.354 39.1 12.4 37 16.6
2011-07-06 07:39:33 51°20.886 2°54.372 40.7 12.5 38 16.4
2011-07-06 07:39:38 51°20.899 2°54.389 40.7 12.7 38 16.7
2011-07-06 07:39:43 51°20.913 2°54.408 41.9 12.7 41 16.9
2011-07-06 07:39:48 51°20.926 2°54.426 42.8 12.8 40 16.7
2011-07-06 07:39:53 51°20.941 2°54.443 42.7 12.9 37 16.9
2011-07-06 07:39:57 51°20.952 2°54.457 40.9 12.9 40 16.7
2011-07-06 07:40:03 51°20.969 2°54.478 41.7 12.9 36 16.7
2011-07-06 07:40:08 51°20.983 2°54.496 40.2 12.8 38 16.7
2011-07-06 07:40:13 51°20.997 2°54.513 40.5 12.7 38 16.9
2011-07-06 07:40:17 51°21.008 2°54.527 40.8 12.8 38 17
2011-07-06 07:40:23 51°21.025 2°54.547 40.1 12.7 36 17.1
2011-07-06 07:40:28 51°21.039 2°54.566 40.1 12.7 41 16.8
2011-07-06 07:40:33 51°21.053 2°54.583 42.2 12.7 39 16.9
2011-07-06 07:40:37 51°21.064 2°54.597 40.9 12.8 37 16.8
2011-07-06 07:40:42 51°21.077 2°54.615 41.5 12.7 40 17
2011-07-06 07:40:48 51°21.094 2°54.636 40.9 12.8 38 17
2011-07-06 07:40:53 51°21.108 2°54.654 40.7 12.9 40 16.9
2011-07-06 07:40:57 51°21.119 2°54.668 41.9 13 38 17
2011-07-06 07:41:02 51°21.134 2°54.685 40.4 12.8 37 16.9
2011-07-06 07:41:08 51°21.15 2°54.707 40.5 12.8 39 16.9
2011-07-06 07:41:13 51°21.164 2°54.723 39.7 12.8 37 16.9
2011-07-06 07:41:17 51°21.175 2°54.739 40.9 12.8 42 17.2
2011-07-06 07:41:21 51°21.186 2°54.753 42.7 12.8 37 17
2011-07-06 07:41:28 51°21.206 2°54.777 40.7 12.8 37 17.1
2011-07-06 07:41:32 51°21.217 2°54.789 39.3 12.6 36 17.1
2011-07-06 07:41:37 51°21.231 2°54.807 39.7 12.5 37 17.1
2011-07-06 07:41:42 51°21.245 2°54.822 39 12.5 35 16.9
2011-07-06 07:41:48 51°21.262 2°54.843 39 12.6 37 17.2
2011-07-06 07:41:53 51°21.277 2°54.858 38.5 12.6 33 17.3
2011-07-06 07:41:57 51°21.288 2°54.872 38.2 12.7 39 16.8
2011-07-06 07:42:03 51°21.305 2°54.892 39.5 12.8 35 17.2
2011-07-06 07:42:08 51°21.318 2°54.91 38.9 12.8 39 17.1
2011-07-06 07:42:13 51°21.332 2°54.928 41.4 12.8 39 17
2011-07-06 07:42:17 51°21.344 2°54.942 41.8 12.8 37 17.1
2011-07-06 07:42:23 51°21.36 2°54.963 40.8 12.8 39 17
2011-07-06 07:42:28 51°21.375 2°54.979 40 12.7 36 17
2011-07-06 07:42:32 51°21.385 2°54.995 40.4 12.8 41 17.2
2011-07-06 07:42:37 51°21.4 2°55.01 39.8 12.7 34 17.4
2011-07-06 07:42:42 51°21.414 2°55.028 39.4 12.6 40 17.1
2011-07-06 07:42:48 51°21.43 2°55.047 39.7 12.5 34 17.4
2011-07-06 07:42:53 51°21.444 2°55.066 38.3 12.7 42 17.3
2011-07-06 07:42:57 51°21.455 2°55.08 42.2 12.7 37 17.2
2011-07-06 07:43:01 51°21.466 2°55.093 40.3 12.7 40 17.2
2011-07-06 07:43:08 51°21.485 2°55.119 42.1 12.7 41 17.4
2011-07-06 07:43:13 51°21.499 2°55.136 41.4 12.7 36 17.4
2011-07-06 07:43:17 51°21.51 2°55.149 39.9 12.6 40 17.3
2011-07-06 07:43:21 51°21.52 2°55.165 42.2 12.8 40 17.2
2011-07-06 07:43:27 51°21.537 2°55.185 40.3 12.8 36 17.4
2011-07-06 07:43:33 51°21.553 2°55.207 40.4 12.7 43 17.3
2011-07-06 07:43:37 51°21.564 2°55.221 42.6 12.8 39 17.4
2011-07-06 07:43:41 51°21.576 2°55.236 42.2 13 39 17.4
2011-07-06 07:43:48 51°21.594 2°55.262 41.5 12.9 41 17.4
2011-07-06 07:43:52 51°21.605 2°55.277 42.7 12.9 41 17.4
2011-07-06 07:43:57 51°21.619 2°55.296 43.1 13.2 42 17.5
2011-07-06 07:44:02 51°21.633 2°55.313 42.6 12.9 36 17.3
2011-07-06 07:44:08 51°21.648 2°55.336 41.2 12.8 44 17.5
2011-07-06 07:44:13 51°21.663 2°55.353 42.4 12.8 37 17.4
2011-07-06 07:44:17 51°21.674 2°55.368 41.7 12.8 41 17.3
2011-07-06 07:44:23 51°21.69 2°55.389 41.7 12.6 39 17.5
2011-07-06 07:44:28 51°21.703 2°55.408 42.8 12.6 40 17.4
2011-07-06 07:44:33 51°21.717 2°55.426 42.5 12.8 39 17.5
2011-07-06 07:44:37 51°21.728 2°55.439 41 12.7 36 17.4
2011-07-06 07:44:43 51°21.745 2°55.461 40.5 12.8 41 17.6
2011-07-06 07:44:48 51°21.759 2°55.477 40.7 12.8 36 17.6
2011-07-06 07:44:53 51°21.772 2°55.496 41.1 12.7 41 17.7
2011-07-06 07:44:57 51°21.784 2°55.509 41.4 12.7 35 17.6
2011-07-06 07:45:02 51°21.798 2°55.525 39.5 12.6 36 17.5
2011-07-06 07:45:08 51°21.815 2°55.545 38.7 12.6 37 17.5
2011-07-06 07:45:13 51°21.83 2°55.562 39.8 12.8 36 17.6
2011-07-06 07:45:17 51°21.841 2°55.575 38.1 12.8 36 17.7
2011-07-06 07:45:21 51°21.852 2°55.589 39.9 12.7 36 17.8
2011-07-06 07:45:28 51°21.873 2°55.612 39 12.8 37 17.5
2011-07-06 07:45:33 51°21.887 2°55.628 39.7 12.8 35 17.6
2011-07-06 07:45:37 51°21.899 2°55.641 38.1 12.7 35 17.4
2011-07-06 07:45:41 51°21.91 2°55.655 39 12.7 38 17.6
2011-07-06 07:45:47 51°21.927 2°55.674 39.6 12.7 35 17.8
2011-07-06 07:45:53 51°21.944 2°55.694 39 12.7 37 17.7
2011-07-06 07:45:57 51°21.955 2°55.707 39 12.8 35 17.7
2011-07-06 07:46:03 51°21.973 2°55.727 38.1 12.9 35 17.7
2011-07-06 07:46:08 51°21.987 2°55.742 37 12.6 34 17.6
2011-07-06 07:46:12 51°21.998 2°55.756 38.6 12.6 38 17.8
2011-07-06 07:46:17 51°22.013 2°55.771 37 12.6 33 17.8
2011-07-06 07:46:22 51°22.027 2°55.788 37.6 12.6 37 17.8
2011-07-06 07:46:28 51°22.043 2°55.809 39.9 12.7 40 17.8
2011-07-06 07:46:33 51°22.058 2°55.826 41.7 12.9 36 17.7
2011-07-06 07:46:37 51°22.069 2°55.84 40.5 12.9 37 17.8
2011-07-06 07:46:43 51°22.086 2°55.861 39.5 12.9 37 17.8
2011-07-06 07:46:48 51°22.101 2°55.877 40.1 13 35 17.8
2011-07-06 07:46:52 51°22.113 2°55.89 38.8 12.9 35 17.7
2011-07-06 07:46:57 51°22.127 2°55.907 37.9 12.9 35 17.8
2011-07-06 07:47:03 51°22.145 2°55.927 38.1 12.9 36 18
2011-07-06 07:47:08 51°22.159 2°55.943 38.8 12.9 35 17.9
2011-07-06 07:47:13 51°22.174 2°55.96 38.3 13 36 17.8
2011-07-06 07:47:17 51°22.186 2°55.973 38 12.8 35 17.9
2011-07-06 07:47:22 51°22.2 2°55.99 39 12.9 38 18
2011-07-06 07:47:28 51°22.218 2°56.01 39.5 13 34 18.1
2011-07-06 07:47:33 51°22.231 2°56.028 38.7 12.9 39 18.1
2011-07-06 07:47:37 51°22.243 2°56.042 40.8 12.9 37 17.8
2011-07-06 07:47:41 51°22.254 2°56.056 41.5 13.1 40 17.8
2011-07-06 07:47:47 51°22.271 2°56.078 41.4 12.9 39 18
2011-07-06 07:47:53 51°22.287 2°56.101 43.6 13 42 18
2011-07-06 07:47:57 51°22.299 2°56.114 42.3 13 37 17.8
2011-07-06 07:48:01 51°22.31 2°56.129 41.6 13 42 18
2011-07-06 07:48:08 51°22.329 2°56.155 43.6 13 38 18
2011-07-06 07:48:13 51°22.343 2°56.173 41.6 13 40 17.9
2011-07-06 07:48:17 51°22.354 2°56.188 42.6 13 37 18.2
2011-07-06 07:48:22 51°22.368 2°56.205 40.7 13 39 18.2
2011-07-06 07:48:27 51°22.382 2°56.224 41.5 12.9 40 18
2011-07-06 07:48:33 51°22.399 2°56.244 42.4 12.9 37 18
2011-07-06 07:48:37 51°22.41 2°56.259 41.4 12.8 40 18.2
2011-07-06 07:48:43 51°22.427 2°56.28 42.2 12.9 36 18.5
2011-07-06 07:48:48 51°22.44 2°56.298 40.2 12.8 40 18.5
2011-07-06 07:48:53 51°22.454 2°56.315 40.5 12.7 38 18.2
2011-07-06 07:48:57 51°22.465 2°56.33 42.8 12.7 40 18
2011-07-06 07:49:03 51°22.482 2°56.35 41.5 12.6 38 18.3
2011-07-06 07:49:08 51°22.495 2°56.368 42.4 12.5 40 18.1
2011-07-06 07:49:12 51°22.505 2°56.382 42.2 12.4 39 18.2
2011-07-06 07:49:17 51°22.518 2°56.4 42.6 12.4 42 18.3
2011-07-06 07:49:22 51°22.531 2°56.418 44.5 12.5 42 18.1
2011-07-06 07:49:28 51°22.546 2°56.442 45.8 12.6 44 18.3
2011-07-06 07:49:33 51°22.558 2°56.461 46.4 12.6 44 18.2
2011-07-06 07:49:37 51°22.568 2°56.477 47.3 12.7 43 18.2
2011-07-06 07:49:41 51°22.579 2°56.491 46.2 12.6 44 18.4
2011-07-06 07:49:48 51°22.596 2°56.519 47.2 12.5 44 18.3
2011-07-06 07:49:53 51°22.609 2°56.537 47.2 12.5 43 18.2
2011-07-06 07:49:57 51°22.619 2°56.552 45.5 12.6 43 18.4
2011-07-06 07:50:01 51°22.629 2°56.568 46.5 12.7 44 18.3
2011-07-06 07:50:07 51°22.644 2°56.591 46.4 12.7 43 18.3
2011-07-06 07:50:13 51°22.66 2°56.613 45.7 12.7 41 18.4
2011-07-06 07:50:17 51°22.671 2°56.628 44.2 12.6 40 18.3
2011-07-06 07:50:21 51°22.681 2°56.643 43.7 12.6 41 18.2
2011-07-06 07:50:28 51°22.7 2°56.667 42.1 12.7 39 18.2
2011-07-06 07:50:33 51°22.713 2°56.688 44 12.8 45 18
2011-07-06 07:50:37 51°22.724 2°56.702 44.7 12.6 39 18.2
2011-07-06 07:50:42 51°22.736 2°56.721 44.3 12.5 44 18.3
2011-07-06 07:50:48 51°22.752 2°56.743 45.2 12.6 41 18.4
2011-07-06 07:50:53 51°22.765 2°56.761 44.4 12.4 41 18.4
2011-07-06 07:50:57 51°22.775 2°56.776 44.1 12.6 45 18.5
2011-07-06 07:51:03 51°22.791 2°56.798 44.9 12.7 41 18.2
2011-07-06 07:51:08 51°22.803 2°56.818 44.7 12.5 46 18.3
2011-07-06 07:51:12 51°22.813 2°56.834 47.4 12.6 43 18.3
2011-07-06 07:51:17 51°22.827 2°56.851 44.6 12.5 39 18.3
2011-07-06 07:51:23 51°22.842 2°56.873 42.8 12.4 43 18.1
2011-07-06 07:51:28 51°22.855 2°56.892 44.7 12.6 43 18.3
2011-07-06 07:51:32 51°22.865 2°56.907 45.7 12.6 43 18.3
2011-07-06 07:51:37 51°22.877 2°56.926 45.8 12.4 45 18.2
2011-07-06 07:51:42 51°22.889 2°56.947 49.4 12.5 47 18.1
2011-07-06 07:51:48 51°22.903 2°56.97 49.5 12.5 45 18.1
2011-07-06 07:51:52 51°22.913 2°56.987 49 12.5 48 17.9
2011-07-06 07:51:57 51°22.924 2°57.007 50.4 12.5 46 18
2011-07-06 07:52:02 51°22.936 2°57.027 49.5 12.6 50 18.1
2011-07-06 07:52:08 51°22.949 2°57.054 52.4 12.8 51 18.1
2011-07-06 07:52:12 51°22.959 2°57.071 53.1 12.9 50 18.1
2011-07-06 07:52:17 51°22.969 2°57.093 53.8 12.8 50 18.2
2011-07-06 07:52:22 51°22.981 2°57.114 52.6 12.5 49 18.1
2011-07-06 07:52:27 51°22.992 2°57.135 52.8 12.4 51 18.2
2011-07-06 07:52:33 51°23.006 2°57.16 52.4 12.4 48 18.2
2011-07-06 07:52:37 51°23.014 2°57.177 52.3 12.2 52 18.1
2011-07-06 07:52:42 51°23.025 2°57.197 53.3 12.3 47 18
2011-07-06 07:52:47 51°23.037 2°57.217 50.6 12.5 45 17.9
2011-07-06 07:52:53 51°23.052 2°57.241 49 12.5 45 18.1
2011-07-06 07:52:57 51°23.062 2°57.256 48 12.7 44 17.9
2011-07-06 07:53:02 51°23.075 2°57.276 46.7 12.9 43 18.2
2011-07-06 07:53:07 51°23.088 2°57.295 45.1 12.8 43 17.9
2011-07-06 07:53:12 51°23.101 2°57.315 46.1 12.8 45 17.8
2011-07-06 07:53:17 51°23.114 2°57.334 46.6 12.9 42 17.9
2011-07-06 07:53:22 51°23.127 2°57.354 45.7 12.8 44 17.8
2011-07-06 07:53:27 51°23.14 2°57.373 46 12.6 45 18
2011-07-06 07:53:33 51°23.155 2°57.396 47.2 12.5 42 17.9
2011-07-06 07:53:37 51°23.165 2°57.411 45.8 12.4 43 18
2011-07-06 07:53:42 51°23.178 2°57.429 44.8 12.3 40 18
2011-07-06 07:53:48 51°23.193 2°57.451 44.4 12.4 42 17.5
2011-07-06 07:53:53 51°23.206 2°57.468 44.7 12.4 40 17.7
2011-07-06 07:53:57 51°23.217 2°57.483 43.6 12.4 42 17.3
2011-07-06 07:54:02 51°23.23 2°57.501 43.6 12.4 38 17.6
2011-07-06 07:54:08 51°23.246 2°57.522 42.4 12.4 42 17.6
2011-07-06 07:54:13 51°23.258 2°57.54 44.2 12.4 41 17.6
2011-07-06 07:54:17 51°23.268 2°57.555 44.7 12.4 43 17.5
2011-07-06 07:54:22 51°23.281 2°57.574 46 12.4 42 17.6
2011-07-06 07:54:28 51°23.297 2°57.595 45 12.4 40 17.8
2011-07-06 07:54:33 51°23.309 2°57.615 44.6 12.4 44 17.5
2011-07-06 07:54:37 51°23.319 2°57.63 46.6 12.5 45 17.5
2011-07-06 07:54:42 51°23.331 2°57.65 47.5 12.7 43 17.5
2011-07-06 07:54:47 51°23.344 2°57.669 47 12.6 45 17.4
2011-07-06 07:54:53 51°23.359 2°57.692 47.3 12.6 44 15.5
2011-07-06 07:54:57 51°23.369 2°57.708 47.5 12.4 44 17.3
2011-07-06 07:55:02 51°23.382 2°57.726 46.5 12.4 42 17.8
2011-07-06 07:55:07 51°23.394 2°57.745 45.8 12.4 44 17.7
2011-07-06 07:55:12 51°23.407 2°57.764 45.6 12.4 43 17.4
2011-07-06 07:55:17 51°23.419 2°57.783 46.5 12.5 44 16.2
2011-07-06 07:55:22 51°23.433 2°57.8 44.4 12.5 39 16.1
2011-07-06 07:55:27 51°23.445 2°57.82 45.2 12.5 46 17.6
2011-07-06 07:55:32 51°23.458 2°57.839 46.7 12.6 43 17.6
2011-07-06 07:55:37 51°23.47 2°57.859 47.5 12.8 45 17.6
2011-07-06 07:55:42 51°23.483 2°57.878 47.4 12.7 42 17.4
2011-07-06 07:55:47 51°23.496 2°57.897 46.2 12.6 43 17.5
2011-07-06 07:55:53 51°23.511 2°57.92 46.3 12.7 42 17.3
2011-07-06 07:55:57 51°23.522 2°57.935 45.8 12.7 41 16.6
2011-07-06 07:56:02 51°23.535 2°57.953 44.9 12.5 41 16.4
2011-07-06 07:56:07 51°23.549 2°57.971 44 12.5 39 17.8
2011-07-06 07:56:13 51°23.565 2°57.992 43 12.6 40 17.7
2011-07-06 07:56:17 51°23.575 2°58.007 43.3 12.6 41 17.5
2011-07-06 07:56:22 51°23.589 2°58.024 42.5 12.6 39 15.5
2011-07-06 07:56:28 51°23.605 2°58.046 42.9 12.7 39 17.4
2011-07-06 07:56:32 51°23.617 2°58.058 41.5 12.7 36 17.7
2011-07-06 07:56:37 51°23.63 2°58.077 42 12.7 41 17.4
2011-07-06 07:56:42 51°23.644 2°58.094 42.9 12.8 37 16.2
2011-07-06 07:56:48 51°23.66 2°58.116 42.2 12.7 40 15.8
2011-07-06 07:56:53 51°23.674 2°58.134 42.8 12.9 40 16.3
2011-07-06 07:56:57 51°23.685 2°58.148 43 12.8 39 15.6
2011-07-06 07:57:02 51°23.698 2°58.166 43.2 12.8 40 16.7
2011-07-06 07:57:08 51°23.715 2°58.188 43.5 12.8 39 17.1
2011-07-06 07:57:13 51°23.728 2°58.207 43.4 12.8 42 17
2011-07-06 07:57:17 51°23.738 2°58.223 46.1 12.7 44 16.3
2011-07-06 07:57:22 51°23.751 2°58.242 47 12.9 44 14.9
2011-07-06 07:57:27 51°23.764 2°58.262 47.1 12.9 42 16.1
2011-07-06 07:57:33 51°23.78 2°58.284 45.4 12.7 40 16.6
2011-07-06 07:57:37 51°23.79 2°58.299 45.1 12.6 43 16.6
2011-07-06 07:57:42 51°23.804 2°58.317 44.9 12.8 40 16.3
2011-07-06 07:57:48 51°23.82 2°58.34 44.8 12.8 42 16.5
2011-07-06 07:57:53 51°23.834 2°58.357 43.9 12.8 38 17
2011-07-06 07:57:57 51°23.844 2°58.373 44.3 12.7 44 16.8
2011-07-06 07:58:02 51°23.857 2°58.391 45.3 12.7 40 16.4
2011-07-06 07:58:08 51°23.872 2°58.414 45.1 12.7 44 15.9
2011-07-06 07:58:12 51°23.883 2°58.429 46.4 12.6 41 14.9
2011-07-06 07:58:17 51°23.896 2°58.448 45.8 12.6 44 15.7
2011-07-06 07:58:22 51°23.908 2°58.467 47.2 12.6 44 16
2011-07-06 07:58:27 51°23.921 2°58.486 47.2 12.6 43 15.9
2011-07-06 07:58:32 51°23.934 2°58.506 47.1 12.7 45 15.7
2011-07-06 07:58:37 51°23.947 2°58.525 47.5 12.7 42 16.2
2011-07-06 07:58:42 51°23.959 2°58.544 46.9 12.5 44 15.9
2011-07-06 07:58:48 51°23.975 2°58.566 46.5 12.4 41 15.4
2011-07-06 07:58:52 51°23.985 2°58.581 45.8 12.4 43 15.1
2011-07-06 07:58:57 51°23.998 2°58.599 45.6 12.4 42 14.8
2011-07-06 07:59:02 51°24.011 2°58.618 45.9 12.5 41 15.5
2011-07-06 07:59:07 51°24.024 2°58.636 45.6 12.5 41 15.4
2011-07-06 07:59:12 51°24.037 2°58.655 45.1 12.6 42 15
2011-07-06 07:59:17 51°24.05 2°58.673 44.4 12.6 39 15.3
2011-07-06 07:59:22 51°24.062 2°58.692 44.6 12.5 45 15
2011-07-06 07:59:28 51°24.078 2°58.714 47 12.7 39 14.1
2011-07-06 07:59:33 51°24.092 2°58.733 45 12.8 41 15.8
2011-07-06 07:59:37 51°24.103 2°58.746 43 12.7 39 15.8
2011-07-06 07:59:42 51°24.116 2°58.766 44.4 12.6 43 15.8
2011-07-06 07:59:47 51°24.129 2°58.783 45.3 12.5 40 15.6
2011-07-06 07:59:53 51°24.144 2°58.806 45.3 12.5 42 15.6
2011-07-06 07:59:57 51°24.155 2°58.82 45.1 12.5 41 15.9
2011-07-06 08:00:02 51°24.168 2°58.838 45.2 12.5 42 15.7
2011-07-06 08:00:07 51°24.182 2°58.856 44.6 12.6 40 15.3
2011-07-06 08:00:12 51°24.195 2°58.875 45 12.7 42 15.3
2011-07-06 08:00:17 51°24.208 2°58.893 45.1 12.7 40 15.3
2011-07-06 08:00:22 51°24.221 2°58.912 45.1 12.7 43 15.3
2011-07-06 08:00:28 51°24.237 2°58.934 45.8 12.8 40 15
2011-07-06 08:00:32 51°24.248 2°58.949 45.3 12.8 40 15
2011-07-06 08:00:37 51°24.262 2°58.965 41.9 12.7 35 15
2011-07-06 08:00:42 51°24.276 2°58.982 41 12.6 38 15
2011-07-06 08:00:48 51°24.293 2°59.001 40.7 12.8 34 14.7
2011-07-06 08:00:52 51°24.306 2°59.013 38.5 12.8 30 15
2011-07-06 08:00:57 51°24.321 2°59.028 35.4 12.7 34 14.8
2011-07-06 08:01:02 51°24.336 2°59.044 36.8 12.9 32 14.8
2011-07-06 08:01:07 51°24.351 2°59.058 36.3 12.9 30 14.9
2011-07-06 08:01:13 51°24.369 2°59.076 35.5 12.8 32 15.1
2011-07-06 08:01:17 51°24.382 2°59.087 35.1 12.9 30 14.9
2011-07-06 08:01:22 51°24.397 2°59.103 34.9 13 33 14.8
2011-07-06 08:01:27 51°24.413 2°59.117 35.9 13.1 27 14.9
2011-07-06 08:01:33 51°24.431 2°59.134 33.2 12.9 31 15.2
2011-07-06 08:01:37 51°24.444 2°59.145 34.3 12.9 27 15
2011-07-06 08:01:42 51°24.46 2°59.158 32.1 12.9 30 15.1
2011-07-06 08:01:48 51°24.478 2°59.175 33.6 12.9 29 15.2
2011-07-06 08:01:52 51°24.491 2°59.186 32.7 12.9 30 15.3
2011-07-06 08:01:57 51°24.506 2°59.201 34.3 12.9 31 15.3
2011-07-06 08:02:02 51°24.522 2°59.214 33.9 13.1 28 15.7
2011-07-06 08:02:07 51°24.537 2°59.229 33 13 29 15.7
2011-07-06 08:02:12 51°24.553 2°59.242 32.8 13 28 15.8
2011-07-06 08:02:17 51°24.57 2°59.255 32.4 13 27 15.9
2011-07-06 08:02:22 51°24.586 2°59.269 31.4 13.1 27 16.1
2011-07-06 08:02:28 51°24.605 2°59.284 30.6 13.1 27 15.9
2011-07-06 08:02:32 51°24.618 2°59.296 32.2 13.2 29 16.5
2011-07-06 08:02:37 51°24.634 2°59.309 31.8 12.9 28 16.9
2011-07-06 08:02:42 51°24.649 2°59.325 33.7 12.7 33 17
2011-07-06 08:02:48 51°24.668 2°59.34 34.9 12.9 27 18.4
2011-07-06 08:02:52 51°24.68 2°59.351 32.4 12.8 28 19
2011-07-06 08:02:57 51°24.695 2°59.366 33.4 12.7 33 19
2011-07-06 08:03:02 51°24.71 2°59.381 35.9 13 28 19.1
2011-07-06 08:03:07 51°24.726 2°59.394 33.6 12.8 31 18.8
2011-07-06 08:03:13 51°24.744 2°59.413 35.6 12.8 31 18.7
2011-07-06 08:03:17 51°24.757 2°59.423 34.2 12.9 28 19
2011-07-06 08:03:22 51°24.772 2°59.438 32.8 12.8 32 19
2011-07-06 08:03:28 51°24.791 2°59.456 35.4 12.9 31 18.8
2011-07-06 08:03:32 51°24.803 2°59.467 35.5 12.9 29 19.2
2011-07-06 08:03:37 51°24.819 2°59.48 33 12.8 29 19.3
2011-07-06 08:03:42 51°24.834 2°59.495 33.8 12.9 30 18.9
2011-07-06 08:03:47 51°24.85 2°59.509 33.6 12.9 30 18.6
2011-07-06 08:03:53 51°24.867 2°59.528 35.8 12.7 34 18.7
2011-07-06 08:03:57 51°24.879 2°59.541 37 12.7 34 19
2011-07-06 08:04:01 51°24.89 2°59.553 38.6 12.6 33 18.4
2011-07-06 08:04:07 51°24.908 2°59.572 37.6 12.7 34 18.6
2011-07-06 08:04:12 51°24.923 2°59.588 38 12.9 33 17.7
2011-07-06 08:04:17 51°24.938 2°59.604 37.2 12.8 34 17.2
2011-07-06 08:04:22 51°24.952 2°59.62 39.3 12.9 35 17
2011-07-06 08:04:27 51°24.968 2°59.634 37.8 12.9 31 17.3
2011-07-06 08:04:33 51°24.985 2°59.655 37.3 12.8 36 17.1
2011-07-06 08:04:37 51°24.998 2°59.667 38.6 12.9 33 17.1
2011-07-06 08:04:42 51°25.012 2°59.683 38.9 12.9 36 17.2
2011-07-06 08:04:47 51°25.027 2°59.7 39.3 13.1 35 16.9
2011-07-06 08:04:53 51°25.045 2°59.719 39.9 13.1 33 16.8
2011-07-06 08:04:57 51°25.057 2°59.733 39 12.9 36 16.8
2011-07-06 08:05:02 51°25.071 2°59.748 39.6 12.9 31 16.4
2011-07-06 08:05:08 51°25.089 2°59.768 38.4 12.9 36 16.7
2011-07-06 08:05:12 51°25.101 2°59.78 38.6 13 31 16.9
2011-07-06 08:05:17 51°25.117 2°59.795 36.1 13 34 16.8
2011-07-06 08:05:22 51°25.131 2°59.812 37.3 12.9 34 16.6
2011-07-06 08:05:28 51°25.149 2°59.831 38.5 12.9 34 16.4
2011-07-06 08:05:33 51°25.164 2°59.847 39 12.7 35 16.4
2011-07-06 08:05:37 51°25.175 2°59.859 39.6 12.7 34 16.4
2011-07-06 08:05:41 51°25.188 2°59.871 37 12.7 30 16.7
2011-07-06 08:05:48 51°25.207 2°59.894 37.6 12.6 38 16.4
2011-07-06 08:05:52 51°25.219 2°59.906 40.1 12.8 32 16.4
2011-07-06 08:05:57 51°25.234 2°59.921 37.9 12.6 34 16.4
2011-07-06 08:06:02 51°25.248 2°59.937 38.5 12.6 36 16.5
2011-07-06 08:06:07 51°25.263 2°59.954 40.7 12.8 35 16
2011-07-06 08:06:13 51°25.281 2°59.972 39.4 12.8 32 16.1
2011-07-06 08:06:17 51°25.293 2°59.984 37.3 12.7 32 16.3
2011-07-06 08:06:22 51°25.307 2°60 36.9 12.8 34 16.2
2011-07-06 08:06:28 51°25.325 3°0.019 38.6 12.8 34 16.2
2011-07-06 08:06:33 51°25.34 3°0.035 40 12.9 34 16.2
2011-07-06 08:06:37 51°25.352 3°0.047 38.2 12.9 34 16.3
2011-07-06 08:06:42 51°25.366 3°0.064 39.3 12.8 35 15.9
2011-07-06 08:06:47 51°25.382 3°0.079 39.4 12.9 34 16
2011-07-06 08:06:53 51°25.399 3°0.1 39.5 12.9 35 16
2011-07-06 08:06:57 51°25.411 3°0.11 37.4 12.8 28 16.1
2011-07-06 08:07:02 51°25.425 3°0.127 37.6 12.5 38 15.5
2011-07-06 08:07:08 51°25.443 3°0.145 39.2 12.7 32 16
2011-07-06 08:07:12 51°25.454 3°0.158 38.7 12.7 38 15.7
2011-07-06 08:07:17 51°25.469 3°0.176 41.4 12.9 36 15.9
2011-07-06 08:07:22 51°25.484 3°0.192 40.7 12.8 34 15.6
2011-07-06 08:07:28 51°25.5 3°0.213 40.8 12.8 37 15.8
2011-07-06 08:07:32 51°25.513 3°0.224 39.5 13 32 15.4
2011-07-06 08:07:37 51°25.527 3°0.242 39.6 13 35 15.6
2011-07-06 08:07:42 51°25.542 3°0.256 38.1 13 32 15.6
2011-07-06 08:07:48 51°25.56 3°0.276 39.3 13 33 15.5
2011-07-06 08:07:53 51°25.575 3°0.291 37.4 12.9 32 15.3
2011-07-06 08:07:57 51°25.587 3°0.304 37.3 12.8 33 15.2
2011-07-06 08:08:02 51°25.602 3°0.32 38.6 13 35 15.6
2011-07-06 08:08:07 51°25.618 3°0.333 36.2 12.9 27 15.6
2011-07-06 08:08:13 51°25.635 3°0.354 36.7 12.9 38 15.4
2011-07-06 08:08:17 51°25.648 3°0.365 38.4 13.1 29 15.3
2011-07-06 08:08:22 51°25.663 3°0.381 37.1 12.8 36 15.3
2011-07-06 08:08:27 51°25.677 3°0.397 39.3 12.9 34 15.1
2011-07-06 08:08:33 51°25.695 3°0.416 39.2 13 33 15.3
2011-07-06 08:08:37 51°25.707 3°0.429 37.7 12.8 37 15
2011-07-06 08:08:42 51°25.721 3°0.446 40.8 13 33 15
2011-07-06 08:08:47 51°25.737 3°0.46 37.4 12.9 33 14.8
2011-07-06 08:08:52 51°25.751 3°0.478 39.3 13 36 14.8
2011-07-06 08:08:57 51°25.767 3°0.493 39.4 13.3 33 14.7
2011-07-06 08:09:02 51°25.782 3°0.511 38.8 13.2 34 14.7
2011-07-06 08:09:08 51°25.8 3°0.53 38.1 13.1 35 14.6
2011-07-06 08:09:12 51°25.812 3°0.543 39.8 13.2 35 14.4
2011-07-06 08:09:17 51°25.827 3°0.56 39.4 13.3 34 14.5
2011-07-06 08:09:22 51°25.842 3°0.576 38.6 13.2 33 14.3
2011-07-06 08:09:27 51°25.857 3°0.592 38.3 13 34 14.1
2011-07-06 08:09:33 51°25.875 3°0.611 39.1 12.9 33 14.2
2011-07-06 08:09:37 51°25.887 3°0.623 38.1 12.9 33 13.9
2011-07-06 08:09:42 51°25.902 3°0.639 37.4 12.9 32 14
2011-07-06 08:09:48 51°25.92 3°0.658 36.7 12.8 36 13.9
2011-07-06 08:09:53 51°25.935 3°0.674 40 12.7 34 14
2011-07-06 08:09:57 51°25.946 3°0.687 39.4 12.7 37 13.9
2011-07-06 08:10:02 51°25.961 3°0.703 39.2 12.7 31 14
2011-07-06 08:10:08 51°25.977 3°0.723 37.5 12.5 40 13.5
2011-07-06 08:10:13 51°25.992 3°0.738 41.9 12.8 32 13.2
2011-07-06 08:10:17 51°26.004 3°0.75 38 12.8 34 13.1
2011-07-06 08:10:22 51°26.018 3°0.767 38.7 12.7 34 12.9
2011-07-06 08:10:28 51°26.037 3°0.785 37.3 12.7 32 12.7
2011-07-06 08:10:33 51°26.051 3°0.8 37.6 12.8 33 12.4
2011-07-06 08:10:37 51°26.064 3°0.812 37.3 12.9 32 12.2
2011-07-06 08:10:42 51°26.079 3°0.827 37.1 12.9 31 12.1
2011-07-06 08:10:47 51°26.094 3°0.842 35.7 13 31 12
2011-07-06 08:10:52 51°26.11 3°0.857 35.2 12.8 30 11.3
2011-07-06 08:10:57 51°26.125 3°0.87 34.4 12.7 29 12.9
2011-07-06 08:11:02 51°26.14 3°0.885 35 12.8 32 12.8
2011-07-06 08:11:08 51°26.159 3°0.901 35.1 13 28 12.6
2011-07-06 08:11:12 51°26.171 3°0.914 34.9 12.8 34 11.9
2011-07-06 08:11:17 51°26.185 3°0.93 37.2 12.8 32 13.2
2011-07-06 08:11:22 51°26.2 3°0.945 37.6 12.7 36 12.7
2011-07-06 08:11:27 51°26.215 3°0.962 39.5 13.1 32 12.7
2011-07-06 08:11:32 51°26.23 3°0.978 37.2 13 37 12.2
2011-07-06 08:11:37 51°26.244 3°0.995 40.2 12.9 34 13
2011-07-06 08:11:42 51°26.259 3°1.011 38.8 12.9 35 12.4
2011-07-06 08:11:47 51°26.274 3°1.026 38 13 32 13.6
2011-07-06 08:11:53 51°26.293 3°1.044 37.2 13.1 31 13.4
2011-07-06 08:11:57 51°26.305 3°1.057 37 13 34 13.4
2011-07-06 08:12:02 51°26.32 3°1.072 36.6 13 30 13.2
2011-07-06 08:12:07 51°26.335 3°1.088 36.5 12.9 34 12.9
2011-07-06 08:12:13 51°26.354 3°1.106 36.6 12.9 31 12.8
2011-07-06 08:12:17 51°26.365 3°1.119 37.3 13 34 13.6
2011-07-06 08:12:22 51°26.381 3°1.132 35.5 13 31 13.5
2011-07-06 08:12:27 51°26.395 3°1.151 37.4 13.1 36 13.6
2011-07-06 08:12:32 51°26.412 3°1.164 36.2 13.1 31 13.3
2011-07-06 08:12:37 51°26.426 3°1.183 38.6 13.2 34 14.2
2011-07-06 08:12:42 51°26.443 3°1.195 34.8 13.1 30 14
2011-07-06 08:12:47 51°26.457 3°1.213 36.4 13 34 13.8
2011-07-06 08:12:53 51°26.476 3°1.23 36 13.1 31 13.9
2011-07-06 08:12:57 51°26.488 3°1.243 36.2 13 32 14
2011-07-06 08:13:02 51°26.503 3°1.258 36.2 12.8 35 14
2011-07-06 08:13:08 51°26.521 3°1.276 37.1 13 31 14.2
2011-07-06 08:13:13 51°26.536 3°1.293 36.7 13.1 34 14.5
2011-07-06 08:13:17 51°26.549 3°1.302 33.3 12.8 27 14.3
2011-07-06 08:13:22 51°26.563 3°1.32 36.4 12.9 36 14.7
2011-07-06 08:13:27 51°26.58 3°1.332 34.6 12.9 27 14.7
2011-07-06 08:13:33 51°26.597 3°1.352 35.1 12.7 36 14.7
2011-07-06 08:13:37 51°26.609 3°1.363 36.5 12.8 31 14.7
2011-07-06 08:13:42 51°26.624 3°1.379 37 12.7 35 14.6
2011-07-06 08:13:48 51°26.641 3°1.397 38.2 12.7 33 14.3
2011-07-06 08:13:53 51°26.655 3°1.414 38.1 12.8 34 14
2011-07-06 08:13:57 51°26.667 3°1.427 38.5 12.8 36 14.1
2011-07-06 08:14:02 51°26.682 3°1.443 39.3 12.7 33 14.1
2011-07-06 08:14:07 51°26.697 3°1.458 37.8 12.8 34 13.8
2011-07-06 08:14:13 51°26.714 3°1.477 37.8 12.7 32 14
2011-07-06 08:14:17 51°26.727 3°1.488 36.1 12.7 32 13.6
2011-07-06 08:14:22 51°26.741 3°1.504 36.8 12.7 33 13.6
2011-07-06 08:14:28 51°26.759 3°1.522 35.7 12.6 32 13.3
2011-07-06 08:14:32 51°26.77 3°1.534 37.2 12.6 32 13.5
2011-07-06 08:14:37 51°26.786 3°1.547 34.2 12.7 29 13.5
2011-07-06 08:14:42 51°26.8 3°1.564 35.7 12.7 35 13.4
2011-07-06 08:14:47 51°26.816 3°1.578 36.4 12.8 31 12.9
2011-07-06 08:14:52 51°26.83 3°1.594 36.7 13 34 13